sensor_id;sensor_type;location;lat;lon;timestamp;pressure;altitude;pressure_sealevel;temperature;humidity
19761;BME280;10039;42.632;23.408;2023-04-23T00:00:02;94929.53;;;10.29;66.92
19761;BME280;10039;42.632;23.408;2023-04-23T00:02:45;94932.66;;;10.24;67.17
19761;BME280;10039;42.632;23.408;2023-04-23T00:05:14;94934.06;;;10.09;67.95
19761;BME280;10039;42.632;23.408;2023-04-23T00:07:41;94956.81;;;10.36;67.82
19761;BME280;10039;42.632;23.408;2023-04-23T00:10:11;94920.16;;;9.98;68.12
19761;BME280;10039;42.632;23.408;2023-04-23T00:12:42;94918.25;;;9.98;67.92
19761;BME280;10039;42.632;23.408;2023-04-23T00:15:09;94935.56;;;9.87;68.33
19761;BME280;10039;42.632;23.408;2023-04-23T00:17:38;94936.53;;;10.00;68.03
19761;BME280;10039;42.632;23.408;2023-04-23T00:20:05;94942.31;;;9.95;68.95
19761;BME280;10039;42.632;23.408;2023-04-23T00:22:37;94948.09;;;10.13;68.23
19761;BME280;10039;42.632;23.408;2023-04-23T00:25:03;94933.91;;;9.74;69.60
19761;BME280;10039;42.632;23.408;2023-04-23T00:27:37;94952.03;;;9.59;70.23
19761;BME280;10039;42.632;23.408;2023-04-23T00:30:04;94932.31;;;9.53;69.95
19761;BME280;10039;42.632;23.408;2023-04-23T00:32:29;94926.66;;;9.51;69.70
19761;BME280;10039;42.632;23.408;2023-04-23T00:34:58;94913.56;;;9.37;70.29
19761;BME280;10039;42.632;23.408;2023-04-23T00:37:23;94886.78;;;9.44;69.88
19761;BME280;10039;42.632;23.408;2023-04-23T00:39:52;94925.09;;;9.54;70.10
19761;BME280;10039;42.632;23.408;2023-04-23T00:42:18;94928.22;;;9.49;69.93
19761;BME280;10039;42.632;23.408;2023-04-23T00:44:44;94892.66;;;9.36;69.95
19761;BME280;10039;42.632;23.408;2023-04-23T00:47:14;94940.50;;;9.66;69.58
19761;BME280;10039;42.632;23.408;2023-04-23T00:49:41;94925.91;;;9.51;69.30
19761;BME280;10039;42.632;23.408;2023-04-23T00:52:07;94962.00;;;9.78;69.75
19761;BME280;10039;42.632;23.408;2023-04-23T00:54:41;94929.44;;;9.67;69.53
19761;BME280;10039;42.632;23.408;2023-04-23T00:57:20;94931.31;;;9.70;69.36
19761;BME280;10039;42.632;23.408;2023-04-23T01:00:08;94897.22;;;9.35;70.66
19761;BME280;10039;42.632;23.408;2023-04-23T01:02:56;94902.84;;;9.14;71.23
19761;BME280;10039;42.632;23.408;2023-04-23T01:05:22;94926.38;;;9.19;72.36
19761;BME280;10039;42.632;23.408;2023-04-23T01:07:48;94928.22;;;9.22;72.16
19761;BME280;10039;42.632;23.408;2023-04-23T01:13:04;94900.38;;;9.27;71.02
19761;BME280;10039;42.632;23.408;2023-04-23T01:15:32;94937.19;;;9.58;70.70
19761;BME280;10039;42.632;23.408;2023-04-23T01:17:58;94928.34;;;9.65;69.65
19761;BME280;10039;42.632;23.408;2023-04-23T01:20:25;94963.28;;;9.70;69.49
19761;BME280;10039;42.632;23.408;2023-04-23T01:22:53;94903.81;;;9.27;69.39
19761;BME280;10039;42.632;23.408;2023-04-23T01:25:19;94944.91;;;9.53;69.86
19761;BME280;10039;42.632;23.408;2023-04-23T01:27:45;94944.69;;;9.40;69.88
19761;BME280;10039;42.632;23.408;2023-04-23T01:30:11;94924.75;;;9.25;69.79
19761;BME280;10039;42.632;23.408;2023-04-23T01:32:38;94960.03;;;9.59;69.86
19761;BME280;10039;42.632;23.408;2023-04-23T01:35:07;94934.88;;;9.60;68.96
19761;BME280;10039;42.632;23.408;2023-04-23T01:37:36;94943.13;;;9.69;68.41
19761;BME280;10039;42.632;23.408;2023-04-23T01:40:11;94913.69;;;9.53;68.52
19761;BME280;10039;42.632;23.408;2023-04-23T01:42:38;94929.91;;;9.62;68.50
19761;BME280;10039;42.632;23.408;2023-04-23T01:45:04;94937.44;;;9.67;68.29
19761;BME280;10039;42.632;23.408;2023-04-23T01:47:33;94940.31;;;9.76;68.03
19761;BME280;10039;42.632;23.408;2023-04-23T01:49:59;94948.56;;;9.85;67.43
19761;BME280;10039;42.632;23.408;2023-04-23T01:52:25;94945.97;;;10.04;67.23
19761;BME280;10039;42.632;23.408;2023-04-23T01:54:54;94919.13;;;9.69;67.58
19761;BME280;10039;42.632;23.408;2023-04-23T01:57:29;94952.13;;;9.75;67.78
19761;BME280;10039;42.632;23.408;2023-04-23T02:00:09;94971.94;;;9.74;68.15
19761;BME280;10039;42.632;23.408;2023-04-23T02:02:39;94959.94;;;9.63;68.23
19761;BME280;10039;42.632;23.408;2023-04-23T02:05:10;94951.78;;;9.50;68.55
19761;BME280;10039;42.632;23.408;2023-04-23T02:07:36;94937.19;;;9.58;68.26
19761;BME280;10039;42.632;23.408;2023-04-23T02:10:02;94950.59;;;9.78;67.56
19761;BME280;10039;42.632;23.408;2023-04-23T02:12:28;94916.09;;;9.44;67.93
19761;BME280;10039;42.632;23.408;2023-04-23T02:14:55;94914.91;;;9.49;68.10
19761;BME280;10039;42.632;23.408;2023-04-23T02:17:23;94958.16;;;9.79;67.83
19761;BME280;10039;42.632;23.408;2023-04-23T02:19:49;94936.75;;;9.63;67.90
19761;BME280;10039;42.632;23.408;2023-04-23T02:22:16;94970.78;;;9.75;67.68
19761;BME280;10039;42.632;23.408;2023-04-23T02:24:42;94951.59;;;9.61;67.96
19761;BME280;10039;42.632;23.408;2023-04-23T02:27:09;94928.47;;;9.31;68.05
19761;BME280;10039;42.632;23.408;2023-04-23T02:29:42;94935.50;;;9.18;68.45
19761;BME280;10039;42.632;23.408;2023-04-23T02:32:16;94931.06;;;9.08;69.73
19761;BME280;10039;42.632;23.408;2023-04-23T02:34:42;94919.50;;;8.95;69.38
19761;BME280;10039;42.632;23.408;2023-04-23T02:37:15;94948.53;;;9.13;69.63
19761;BME280;10039;42.632;23.408;2023-04-23T02:39:41;94931.19;;;9.01;70.31
19761;BME280;10039;42.632;23.408;2023-04-23T02:42:10;94940.69;;;9.02;70.39
19761;BME280;10039;42.632;23.408;2023-04-23T02:44:36;94953.28;;;8.98;70.53
19761;BME280;10039;42.632;23.408;2023-04-23T02:47:02;94938.84;;;8.70;71.43
19761;BME280;10039;42.632;23.408;2023-04-23T02:49:28;94957.75;;;8.75;71.42
19761;BME280;10039;42.632;23.408;2023-04-23T02:51:54;94959.97;;;8.80;71.87
19761;BME280;10039;42.632;23.408;2023-04-23T02:54:24;94945.66;;;8.71;72.27
19761;BME280;10039;42.632;23.408;2023-04-23T02:57:00;94915.25;;;8.42;72.56
19761;BME280;10039;42.632;23.408;2023-04-23T02:59:25;94956.88;;;8.55;72.96
19761;BME280;10039;42.632;23.408;2023-04-23T03:01:57;94952.28;;;8.56;73.07
19761;BME280;10039;42.632;23.408;2023-04-23T03:04:32;94987.81;;;8.72;72.71
19761;BME280;10039;42.632;23.408;2023-04-23T03:07:04;94932.81;;;8.32;72.36
19761;BME280;10039;42.632;23.408;2023-04-23T03:09:39;94962.41;;;8.34;72.69
19761;BME280;10039;42.632;23.408;2023-04-23T03:12:07;94954.22;;;8.15;73.06
19761;BME280;10039;42.632;23.408;2023-04-23T03:14:32;94956.38;;;8.30;72.85
19761;BME280;10039;42.632;23.408;2023-04-23T03:16:58;94931.81;;;8.16;72.82
19761;BME280;10039;42.632;23.408;2023-04-23T03:19:24;94969.63;;;8.34;73.59
19761;BME280;10039;42.632;23.408;2023-04-23T03:21:50;94938.25;;;8.22;72.72
19761;BME280;10039;42.632;23.408;2023-04-23T03:24:23;94957.56;;;8.26;72.85
19761;BME280;10039;42.632;23.408;2023-04-23T03:26:50;94960.66;;;8.21;73.20
19761;BME280;10039;42.632;23.408;2023-04-23T03:29:25;95008.78;;;8.30;73.92
19761;BME280;10039;42.632;23.408;2023-04-23T03:31:51;94960.09;;;7.96;74.69
19761;BME280;10039;42.632;23.408;2023-04-23T03:34:17;94933.59;;;7.89;74.82
19761;BME280;10039;42.632;23.408;2023-04-23T03:36:43;94989.25;;;8.06;74.73
19761;BME280;10039;42.632;23.408;2023-04-23T03:39:18;95010.31;;;8.31;74.87
19761;BME280;10039;42.632;23.408;2023-04-23T03:41:48;95017.25;;;8.18;75.26
19761;BME280;10039;42.632;23.408;2023-04-23T03:44:21;94972.56;;;8.06;74.91
19761;BME280;10039;42.632;23.408;2023-04-23T03:46:54;95010.81;;;8.56;74.23
19761;BME280;10039;42.632;23.408;2023-04-23T03:49:32;94995.16;;;8.61;73.26
19761;BME280;10039;42.632;23.408;2023-04-23T03:52:01;94990.06;;;8.44;73.07
19761;BME280;10039;42.632;23.408;2023-04-23T03:54:31;95025.63;;;8.57;73.08
19761;BME280;10039;42.632;23.408;2023-04-23T03:57:13;95002.50;;;8.50;73.35
19761;BME280;10039;42.632;23.408;2023-04-23T04:02:27;94954.31;;;8.45;71.05
19761;BME280;10039;42.632;23.408;2023-04-23T04:04:52;94995.22;;;8.58;70.69
19761;BME280;10039;42.632;23.408;2023-04-23T04:12:43;95028.31;;;8.90;71.08
19761;BME280;10039;42.632;23.408;2023-04-23T04:15:22;95022.91;;;8.93;71.05
19761;BME280;10039;42.632;23.408;2023-04-23T04:21:19;95032.78;;;8.96;70.74
19761;BME280;10039;42.632;23.408;2023-04-23T04:27:15;95029.69;;;9.01;71.50
19761;BME280;10039;42.632;23.408;2023-04-23T04:29:56;95042.22;;;9.01;71.37
19761;BME280;10039;42.632;23.408;2023-04-23T04:32:27;95011.63;;;8.86;71.77
19761;BME280;10039;42.632;23.408;2023-04-23T04:34:59;95045.31;;;8.96;71.61
19761;BME280;10039;42.632;23.408;2023-04-23T04:37:43;95046.88;;;8.93;72.50
19761;BME280;10039;42.632;23.408;2023-04-23T04:40:54;95037.81;;;8.88;72.81
19761;BME280;10039;42.632;23.408;2023-04-23T04:46:35;94997.44;;;8.63;72.40
19761;BME280;10039;42.632;23.408;2023-04-23T04:49:28;95025.59;;;8.93;73.20
19761;BME280;10039;42.632;23.408;2023-04-23T04:51:59;95007.00;;;8.90;72.93
19761;BME280;10039;42.632;23.408;2023-04-23T04:54:27;95022.41;;;9.05;72.53
19761;BME280;10039;42.632;23.408;2023-04-23T04:57:14;95052.94;;;9.27;72.56
19761;BME280;10039;42.632;23.408;2023-04-23T04:59:48;95021.41;;;9.22;72.95
19761;BME280;10039;42.632;23.408;2023-04-23T05:02:18;95025.72;;;9.43;72.15
19761;BME280;10039;42.632;23.408;2023-04-23T05:05:17;95054.53;;;9.78;71.37
19761;BME280;10039;42.632;23.408;2023-04-23T05:07:57;95038.97;;;9.73;70.99
19761;BME280;10039;42.632;23.408;2023-04-23T05:11:14;95045.47;;;9.72;71.98
19761;BME280;10039;42.632;23.408;2023-04-23T05:17:00;95061.44;;;9.98;72.03
19761;BME280;10039;42.632;23.408;2023-04-23T05:19:44;95034.03;;;9.98;71.73
19761;BME280;10039;42.632;23.408;2023-04-23T05:25:39;94998.31;;;9.92;70.70
19761;BME280;10039;42.632;23.408;2023-04-23T05:28:28;95007.09;;;10.15;70.95
19761;BME280;10039;42.632;23.408;2023-04-23T05:31:10;95054.03;;;10.78;70.61
19761;BME280;10039;42.632;23.408;2023-04-23T05:33:38;95031.94;;;10.77;69.43
19761;BME280;10039;42.632;23.408;2023-04-23T05:36:24;95031.72;;;10.88;68.77
19761;BME280;10039;42.632;23.408;2023-04-23T05:38:59;94998.41;;;10.34;69.19
19761;BME280;10039;42.632;23.408;2023-04-23T05:41:48;95001.97;;;10.47;69.47
19761;BME280;10039;42.632;23.408;2023-04-23T05:44:14;95010.31;;;10.49;69.62
19761;BME280;10039;42.632;23.408;2023-04-23T05:47:25;95020.34;;;10.84;69.38
19761;BME280;10039;42.632;23.408;2023-04-23T05:50:11;95039.22;;;11.31;69.10
19761;BME280;10039;42.632;23.408;2023-04-23T05:52:44;95026.88;;;11.37;67.50
19761;BME280;10039;42.632;23.408;2023-04-23T05:58:54;95036.34;;;11.77;66.87
19761;BME280;10039;42.632;23.408;2023-04-23T06:01:51;95021.47;;;11.60;67.25
19761;BME280;10039;42.632;23.408;2023-04-23T06:04:20;95030.50;;;11.82;66.84
19761;BME280;10039;42.632;23.408;2023-04-23T06:06:46;95015.00;;;11.93;67.41
19761;BME280;10039;42.632;23.408;2023-04-23T06:09:13;95022.75;;;12.20;65.94
19761;BME280;10039;42.632;23.408;2023-04-23T06:11:58;95054.03;;;12.38;65.97
19761;BME280;10039;42.632;23.408;2023-04-23T06:14:43;95050.31;;;12.64;65.95
19761;BME280;10039;42.632;23.408;2023-04-23T06:17:17;95032.97;;;12.69;65.06
19761;BME280;10039;42.632;23.408;2023-04-23T06:19:53;95054.75;;;12.83;64.90
19761;BME280;10039;42.632;23.408;2023-04-23T06:25:28;94995.72;;;13.03;63.93
19761;BME280;10039;42.632;23.408;2023-04-23T06:28:05;95016.03;;;13.29;62.55
19761;BME280;10039;42.632;23.408;2023-04-23T06:30:36;95021.53;;;13.50;62.00
19761;BME280;10039;42.632;23.408;2023-04-23T06:33:17;95000.78;;;13.26;62.36
19761;BME280;10039;42.632;23.408;2023-04-23T06:36:03;95009.19;;;13.40;62.02
19761;BME280;10039;42.632;23.408;2023-04-23T06:39:11;94990.47;;;12.83;63.70
19761;BME280;10039;42.632;23.408;2023-04-23T06:42:11;95002.91;;;13.06;63.61
19761;BME280;10039;42.632;23.408;2023-04-23T06:44:49;95024.88;;;13.66;63.78
19761;BME280;10039;42.632;23.408;2023-04-23T06:54:40;94997.69;;;14.39;60.64
19761;BME280;10039;42.632;23.408;2023-04-23T06:57:21;95028.28;;;14.75;60.18
19761;BME280;10039;42.632;23.408;2023-04-23T06:59:59;95007.56;;;14.76;60.73
19761;BME280;10039;42.632;23.408;2023-04-23T07:02:45;95026.53;;;14.48;60.64
19761;BME280;10039;42.632;23.408;2023-04-23T07:05:26;94995.38;;;14.50;60.39
19761;BME280;10039;42.632;23.408;2023-04-23T07:07:59;95041.50;;;15.04;59.92
19761;BME280;10039;42.632;23.408;2023-04-23T07:10:34;95013.28;;;14.87;60.54
19761;BME280;10039;42.632;23.408;2023-04-23T07:12:59;94986.13;;;15.06;59.41
19761;BME280;10039;42.632;23.408;2023-04-23T07:15:25;95011.56;;;15.57;58.16
19761;BME280;10039;42.632;23.408;2023-04-23T07:17:55;95001.66;;;15.54;57.34
19761;BME280;10039;42.632;23.408;2023-04-23T07:20:21;94971.56;;;15.38;57.60
19761;BME280;10039;42.632;23.408;2023-04-23T07:22:47;95009.72;;;15.84;56.85
19761;BME280;10039;42.632;23.408;2023-04-23T07:25:12;94982.59;;;15.70;56.31
19761;BME280;10039;42.632;23.408;2023-04-23T07:27:39;95007.00;;;16.24;56.64
19761;BME280;10039;42.632;23.408;2023-04-23T07:30:06;95006.75;;;16.40;55.13
19761;BME280;10039;42.632;23.408;2023-04-23T07:32:51;95013.53;;;16.80;55.68
19761;BME280;10039;42.632;23.408;2023-04-23T07:35:23;94996.78;;;17.03;53.08
19761;BME280;10039;42.632;23.408;2023-04-23T07:38:08;94977.25;;;17.08;52.57
19761;BME280;10039;42.632;23.408;2023-04-23T07:40:47;94998.81;;;17.53;52.67
19761;BME280;10039;42.632;23.408;2023-04-23T07:43:43;95018.41;;;18.03;51.89
19761;BME280;10039;42.632;23.408;2023-04-23T07:46:17;94975.78;;;18.07;51.15
19761;BME280;10039;42.632;23.408;2023-04-23T07:51:56;95015.38;;;18.10;50.71
19761;BME280;10039;42.632;23.408;2023-04-23T07:54:34;94968.94;;;17.56;52.03
19761;BME280;10039;42.632;23.408;2023-04-23T07:57:04;95023.38;;;18.05;51.03
19761;BME280;10039;42.632;23.408;2023-04-23T07:59:59;94979.00;;;17.88;50.78
19761;BME280;10039;42.632;23.408;2023-04-23T08:02:29;95001.69;;;17.91;50.62
19761;BME280;10039;42.632;23.408;2023-04-23T08:05:26;94993.38;;;18.03;50.30
19761;BME280;10039;42.632;23.408;2023-04-23T08:07:52;94969.41;;;17.55;50.59
19761;BME280;10039;42.632;23.408;2023-04-23T08:10:17;94992.31;;;18.00;51.38
19761;BME280;10039;42.632;23.408;2023-04-23T08:12:45;94974.38;;;17.89;50.08
19761;BME280;10039;42.632;23.408;2023-04-23T08:15:31;95014.78;;;18.48;49.58
19761;BME280;10039;42.632;23.408;2023-04-23T08:17:57;94978.81;;;18.33;48.94
19761;BME280;10039;42.632;23.408;2023-04-23T08:20:22;94967.72;;;18.54;48.54
19761;BME280;10039;42.632;23.408;2023-04-23T08:22:48;95013.34;;;18.61;47.97
19761;BME280;10039;42.632;23.408;2023-04-23T08:25:18;94995.81;;;18.71;49.46
19761;BME280;10039;42.632;23.408;2023-04-23T08:27:46;95010.78;;;18.81;48.28
19761;BME280;10039;42.632;23.408;2023-04-23T08:30:12;95007.72;;;18.88;47.68
19761;BME280;10039;42.632;23.408;2023-04-23T08:32:41;94998.41;;;18.89;48.50
19761;BME280;10039;42.632;23.408;2023-04-23T08:35:07;94975.38;;;19.08;47.61
19761;BME280;10039;42.632;23.408;2023-04-23T08:37:35;94989.38;;;18.92;46.97
19761;BME280;10039;42.632;23.408;2023-04-23T08:40:03;94966.91;;;18.39;47.43
19761;BME280;10039;42.632;23.408;2023-04-23T08:42:49;94951.53;;;17.99;48.52
19761;BME280;10039;42.632;23.408;2023-04-23T08:45:20;94983.19;;;17.57;50.02
19761;BME280;10039;42.632;23.408;2023-04-23T08:47:46;94962.03;;;17.64;48.80
19761;BME280;10039;42.632;23.408;2023-04-23T08:50:13;94981.09;;;17.61;49.23
19761;BME280;10039;42.632;23.408;2023-04-23T08:52:43;94962.44;;;17.72;49.65
19761;BME280;10039;42.632;23.408;2023-04-23T08:55:17;94958.34;;;18.08;48.72
19761;BME280;10039;42.632;23.408;2023-04-23T08:57:46;94968.22;;;18.20;48.70
19761;BME280;10039;42.632;23.408;2023-04-23T09:00:28;94936.38;;;18.48;48.25
19761;BME280;10039;42.632;23.408;2023-04-23T09:03:02;94972.81;;;18.76;48.26
19761;BME280;10039;42.632;23.408;2023-04-23T09:05:36;94952.19;;;18.40;47.86
19761;BME280;10039;42.632;23.408;2023-04-23T09:08:01;94925.41;;;18.66;48.14
19761;BME280;10039;42.632;23.408;2023-04-23T09:10:27;94956.41;;;18.79;47.66
19761;BME280;10039;42.632;23.408;2023-04-23T09:12:56;94967.78;;;19.35;46.49
19761;BME280;10039;42.632;23.408;2023-04-23T09:15:24;94965.53;;;19.19;45.63
19761;BME280;10039;42.632;23.408;2023-04-23T09:17:51;94972.91;;;19.19;46.43
19761;BME280;10039;42.632;23.408;2023-04-23T09:20:19;94925.34;;;18.75;45.45
19761;BME280;10039;42.632;23.408;2023-04-23T09:23:01;94959.28;;;19.57;45.20
19761;BME280;10039;42.632;23.408;2023-04-23T09:25:42;94921.00;;;19.06;45.32
19761;BME280;10039;42.632;23.408;2023-04-23T09:28:13;94924.56;;;19.26;45.73
19761;BME280;10039;42.632;23.408;2023-04-23T09:30:52;94923.63;;;19.15;44.51
19761;BME280;10039;42.632;23.408;2023-04-23T09:36:10;94964.59;;;19.22;47.11
19761;BME280;10039;42.632;23.408;2023-04-23T09:38:48;94914.44;;;19.13;45.16
19761;BME280;10039;42.632;23.408;2023-04-23T09:41:31;94896.44;;;18.81;44.23
19761;BME280;10039;42.632;23.408;2023-04-23T09:43:57;94900.81;;;18.64;44.42
19761;BME280;10039;42.632;23.408;2023-04-23T09:46:36;94913.91;;;18.94;44.12
19761;BME280;10039;42.632;23.408;2023-04-23T09:49:11;94894.00;;;18.83;45.60
19761;BME280;10039;42.632;23.408;2023-04-23T09:51:51;94942.38;;;19.18;44.96
19761;BME280;10039;42.632;23.408;2023-04-23T09:54:20;94894.28;;;18.85;45.29
19761;BME280;10039;42.632;23.408;2023-04-23T09:56:51;94890.41;;;19.15;46.17
19761;BME280;10039;42.632;23.408;2023-04-23T09:59:28;94911.75;;;19.56;44.65
19761;BME280;10039;42.632;23.408;2023-04-23T10:01:54;94919.19;;;19.75;43.52
19761;BME280;10039;42.632;23.408;2023-04-23T10:04:22;94927.78;;;19.74;44.71
19761;BME280;10039;42.632;23.408;2023-04-23T10:06:53;94892.56;;;19.74;43.26
19761;BME280;10039;42.632;23.408;2023-04-23T10:09:20;94916.94;;;19.74;43.83
19761;BME280;10039;42.632;23.408;2023-04-23T10:12:00;94913.53;;;19.16;43.67
19761;BME280;10039;42.632;23.408;2023-04-23T10:14:45;94879.38;;;18.75;45.09
19761;BME280;10039;42.632;23.408;2023-04-23T10:17:21;94871.91;;;18.84;45.19
19761;BME280;10039;42.632;23.408;2023-04-23T10:19:49;94863.72;;;18.93;44.37
19761;BME280;10039;42.632;23.408;2023-04-23T10:22:20;94890.78;;;19.22;44.77
19761;BME280;10039;42.632;23.408;2023-04-23T10:24:51;94896.56;;;19.44;43.89
19761;BME280;10039;42.632;23.408;2023-04-23T10:27:21;94887.41;;;19.56;44.61
19761;BME280;10039;42.632;23.408;2023-04-23T10:29:47;94887.72;;;19.78;43.63
19761;BME280;10039;42.632;23.408;2023-04-23T10:32:16;94876.69;;;19.67;43.53
19761;BME280;10039;42.632;23.408;2023-04-23T10:34:43;94858.28;;;19.36;43.02
19761;BME280;10039;42.632;23.408;2023-04-23T10:37:15;94842.88;;;19.28;42.06
19761;BME280;10039;42.632;23.408;2023-04-23T10:39:55;94844.28;;;19.09;41.59
19761;BME280;10039;42.632;23.408;2023-04-23T10:42:51;94859.59;;;19.41;42.57
19761;BME280;10039;42.632;23.408;2023-04-23T10:45:23;94841.44;;;19.27;41.59
19761;BME280;10039;42.632;23.408;2023-04-23T10:47:54;94861.53;;;19.55;41.69
19761;BME280;10039;42.632;23.408;2023-04-23T10:50:22;94864.00;;;19.73;41.16
19761;BME280;10039;42.632;23.408;2023-04-23T10:52:55;94838.44;;;19.59;41.53
19761;BME280;10039;42.632;23.408;2023-04-23T10:55:23;94836.09;;;19.32;41.88
19761;BME280;10039;42.632;23.408;2023-04-23T11:00:49;94820.66;;;19.73;41.26
19761;BME280;10039;42.632;23.408;2023-04-23T11:03:38;94848.03;;;19.95;40.57
19761;BME280;10039;42.632;23.408;2023-04-23T11:09:35;94855.25;;;19.63;42.09
19761;BME280;10039;42.632;23.408;2023-04-23T11:12:12;94815.13;;;19.47;41.38
19761;BME280;10039;42.632;23.408;2023-04-23T11:20:13;94803.25;;;19.25;41.14
19761;BME280;10039;42.632;23.408;2023-04-23T11:22:47;94807.50;;;19.46;40.09
19761;BME280;10039;42.632;23.408;2023-04-23T11:25:29;94842.09;;;19.76;39.74
19761;BME280;10039;42.632;23.408;2023-04-23T11:28:00;94822.34;;;19.70;38.96
19761;BME280;10039;42.632;23.408;2023-04-23T11:30:31;94813.53;;;19.55;37.43
19761;BME280;10039;42.632;23.408;2023-04-23T11:33:06;94805.75;;;19.63;37.84
19761;BME280;10039;42.632;23.408;2023-04-23T11:35:34;94819.28;;;19.63;36.70
19761;BME280;10039;42.632;23.408;2023-04-23T11:38:07;94806.69;;;19.60;37.16
19761;BME280;10039;42.632;23.408;2023-04-23T11:40:40;94802.22;;;19.57;36.91
19761;BME280;10039;42.632;23.408;2023-04-23T11:43:09;94775.00;;;19.46;36.65
19761;BME280;10039;42.632;23.408;2023-04-23T11:45:37;94768.25;;;19.56;38.83
19761;BME280;10039;42.632;23.408;2023-04-23T11:48:05;94774.34;;;19.51;35.82
19761;BME280;10039;42.632;23.408;2023-04-23T11:50:33;94787.25;;;19.61;36.42
19761;BME280;10039;42.632;23.408;2023-04-23T11:53:10;94787.81;;;19.65;35.66
19761;BME280;10039;42.632;23.408;2023-04-23T11:55:36;94759.97;;;19.45;34.77
19761;BME280;10039;42.632;23.408;2023-04-23T11:58:12;94775.06;;;19.51;35.26
19761;BME280;10039;42.632;23.408;2023-04-23T12:00:44;94797.66;;;19.83;34.60
19761;BME280;10039;42.632;23.408;2023-04-23T12:03:12;94753.69;;;19.53;35.48
19761;BME280;10039;42.632;23.408;2023-04-23T12:05:40;94752.34;;;19.43;34.76
19761;BME280;10039;42.632;23.408;2023-04-23T12:08:16;94786.31;;;19.64;38.01
19761;BME280;10039;42.632;23.408;2023-04-23T12:10:44;94788.69;;;19.77;37.26
19761;BME280;10039;42.632;23.408;2023-04-23T12:13:23;94788.16;;;19.73;37.58
19761;BME280;10039;42.632;23.408;2023-04-23T12:16:18;94757.88;;;19.54;36.34
19761;BME280;10039;42.632;23.408;2023-04-23T12:18:59;94757.06;;;19.48;35.95
19761;BME280;10039;42.632;23.408;2023-04-23T12:21:27;94759.63;;;19.57;36.11
19761;BME280;10039;42.632;23.408;2023-04-23T12:24:02;94759.56;;;19.72;34.96
19761;BME280;10039;42.632;23.408;2023-04-23T12:26:31;94742.66;;;19.77;35.33
19761;BME280;10039;42.632;23.408;2023-04-23T12:28:58;94725.31;;;19.89;35.87
19761;BME280;10039;42.632;23.408;2023-04-23T12:31:26;94761.22;;;20.04;34.49
19761;BME280;10039;42.632;23.408;2023-04-23T12:34:04;94765.69;;;20.07;33.78
19761;BME280;10039;42.632;23.408;2023-04-23T12:36:42;94737.78;;;19.81;33.84
19761;BME280;10039;42.632;23.408;2023-04-23T12:39:24;94767.50;;;19.95;33.22
19761;BME280;10039;42.632;23.408;2023-04-23T12:42:13;94742.38;;;19.75;32.78
19761;BME280;10039;42.632;23.408;2023-04-23T12:44:39;94721.78;;;19.83;32.37
19761;BME280;10039;42.632;23.408;2023-04-23T12:47:06;94750.31;;;19.98;32.57
19761;BME280;10039;42.632;23.408;2023-04-23T12:49:44;94734.47;;;19.71;32.71
19761;BME280;10039;42.632;23.408;2023-04-23T12:52:11;94710.97;;;19.43;32.36
19761;BME280;10039;42.632;23.408;2023-04-23T12:54:38;94737.97;;;19.57;34.04
19761;BME280;10039;42.632;23.408;2023-04-23T12:57:10;94744.41;;;19.40;33.17
19761;BME280;10039;42.632;23.408;2023-04-23T12:59:39;94741.13;;;19.36;33.92
19761;BME280;10039;42.632;23.408;2023-04-23T13:02:08;94744.19;;;19.09;34.55
19761;BME280;10039;42.632;23.408;2023-04-23T13:04:34;94719.88;;;18.95;34.47
19761;BME280;10039;42.632;23.408;2023-04-23T13:07:01;94745.38;;;19.22;34.63
19761;BME280;10039;42.632;23.408;2023-04-23T13:09:30;94733.88;;;18.93;33.96
19761;BME280;10039;42.632;23.408;2023-04-23T13:12:00;94711.59;;;18.84;33.97
19761;BME280;10039;42.632;23.408;2023-04-23T13:14:35;94721.19;;;18.85;33.52
19761;BME280;10039;42.632;23.408;2023-04-23T13:17:09;94737.00;;;19.06;34.29
19761;BME280;10039;42.632;23.408;2023-04-23T13:19:35;94717.94;;;18.95;33.24
19761;BME280;10039;42.632;23.408;2023-04-23T13:22:03;94740.41;;;19.35;34.35
19761;BME280;10039;42.632;23.408;2023-04-23T13:24:29;94755.78;;;19.44;33.04
19761;BME280;10039;42.632;23.408;2023-04-23T13:26:55;94742.50;;;19.46;32.82
19761;BME280;10039;42.632;23.408;2023-04-23T13:29:22;94710.69;;;19.21;32.59
19761;BME280;10039;42.632;23.408;2023-04-23T13:31:54;94739.03;;;19.45;33.86
19761;BME280;10039;42.632;23.408;2023-04-23T13:34:20;94716.59;;;19.39;33.66
19761;BME280;10039;42.632;23.408;2023-04-23T13:36:51;94744.66;;;19.62;33.82
19761;BME280;10039;42.632;23.408;2023-04-23T13:39:24;94729.91;;;19.63;32.83
19761;BME280;10039;42.632;23.408;2023-04-23T13:41:50;94721.25;;;19.79;32.93
19761;BME280;10039;42.632;23.408;2023-04-23T13:44:32;94692.00;;;19.63;32.73
19761;BME280;10039;42.632;23.408;2023-04-23T13:46:58;94724.94;;;20.21;33.74
19761;BME280;10039;42.632;23.408;2023-04-23T13:49:42;94684.66;;;20.09;34.08
19761;BME280;10039;42.632;23.408;2023-04-23T13:52:08;94697.94;;;20.32;34.91
19761;BME280;10039;42.632;23.408;2023-04-23T13:54:42;94705.28;;;20.26;34.48
19761;BME280;10039;42.632;23.408;2023-04-23T13:57:11;94667.84;;;20.30;35.33
19761;BME280;10039;42.632;23.408;2023-04-23T13:59:37;94695.78;;;20.72;32.54
19761;BME280;10039;42.632;23.408;2023-04-23T14:02:08;94723.09;;;20.94;31.42
19761;BME280;10039;42.632;23.408;2023-04-23T14:04:37;94682.94;;;20.67;30.71
19761;BME280;10039;42.632;23.408;2023-04-23T14:07:03;94708.06;;;20.93;31.25
19761;BME280;10039;42.632;23.408;2023-04-23T14:09:29;94709.34;;;20.98;30.12
19761;BME280;10039;42.632;23.408;2023-04-23T14:11:55;94674.13;;;20.78;30.87
19761;BME280;10039;42.632;23.408;2023-04-23T14:14:30;94682.09;;;20.81;30.38
19761;BME280;10039;42.632;23.408;2023-04-23T14:17:33;94700.56;;;20.27;32.28
19761;BME280;10039;42.632;23.408;2023-04-23T14:20:16;94718.53;;;19.99;32.50